Santana de Parnaiba, Brazil
Current Conditions -  °F | °C
As of 8:00 PM on Sunday 23 Nov 2014 (Local Time) from SBMT Reporting Station
Drizzle Drizzle  
Wind Chill: 70°   Ceiling: 1200
Heat Index: 70°   Visibility: 4mi
Dew Point: 64°   Wind: 5mph
Humidity: 83%   Direction: 160°SSE
Pressure: 30.03"   Gusts: NA
Location:  23.44°S, 46.92°W
Report Text: SBMT 232200Z 16004KT 7000 -DZ BKN012 OVC020 21/18 Q1017
Loading
Personal Weather Stations






























Interactive Weather Map New forecast layout! Learn more

10-Day Weather Forecast

Advertisements
Track Severe Weather on mobile